Time;durP1;ratioP1;P1;durP2;ratioP2;P2;SDS_P1;SDS_P2;PMS_P1;PMS_P2;Temp;Humidity;BMP_temperature;BMP_pressure;BME280_temperature;BME280_humidity;BME280_pressure;Samples;Min_cycle;Max_cycle;Signal;HPM_P1;HPM_P2
2021/07/17 00:04:14;;;;;;;24.67;8.90;;;;;;;21.40;88.58;100745.39;4803586;60;1141059;-76
2021/07/17 00:09:20;;;;;;;28.57;8.33;;;;;;;21.44;88.75;100747.22;4789016;59;1140986;-77
2021/07/17 00:14:27;;;;;;;31.03;9.60;;;;;;;21.47;88.74;100741.47;4860475;59;1140990;-74
2021/07/17 00:19:33;;;;;;;20.03;8.97;;;;;;;21.47;88.66;100748.20;4879847;59;1140940;-75
2021/07/17 00:24:38;;;;;;;30.73;8.70;;;;;;;21.47;88.68;100746.86;4885366;59;1141035;-75
2021/07/17 00:29:45;;;;;;;24.27;8.25;;;;;;;21.43;88.72;100743.69;4885138;59;1141028;-75
2021/07/17 00:34:50;;;;;;;22.48;8.50;;;;;;;21.39;88.74;100734.30;4877342;59;1140868;-78
2021/07/17 00:39:56;;;;;;;24.82;8.93;;;;;;;21.35;88.82;100731.68;4874152;59;1140939;-77
2021/07/17 00:45:02;;;;;;;17.12;8.83;;;;;;;21.36;88.89;100736.88;4873715;59;1141215;-75
2021/07/17 00:50:11;;;;;;;34.45;9.10;;;;;;;21.36;88.92;100730.16;4875104;58;1141489;-76
2021/07/17 00:55:17;;;;;;;25.37;8.10;;;;;;;21.39;88.98;100724.38;4870220;59;1141162;-78
2021/07/17 01:00:23;;;;;;;17.27;8.63;;;;;;;21.38;88.92;100723.25;4874812;59;1140932;-74
2021/07/17 01:05:29;;;;;;;21.33;7.83;;;;;;;21.32;88.94;100723.46;4875165;59;1140920;-75
2021/07/17 01:10:36;;;;;;;15.63;7.13;;;;;;;21.26;88.98;100718.80;4858546;59;1140930;-75
2021/07/17 01:15:42;;;;;;;21.48;7.10;;;;;;;21.17;89.81;100719.88;4819485;60;1140926;-74
2021/07/17 01:20:50;;;;;;;18.32;8.05;;;;;;;21.17;89.81;100719.88;4819687;60;1141127;-75
2021/07/17 01:25:57;;;;;;;19.92;7.67;;;;;;;21.19;89.60;100708.94;4819454;60;1140923;-75
2021/07/17 01:31:03;;;;;;;15.28;7.30;;;;;;;21.21;89.68;100710.47;4788398;60;1140902;-77
2021/07/17 01:36:08;;;;;;;18.70;8.80;;;;;;;21.25;89.76;100717.12;4820452;60;1140877;-76
2021/07/17 01:41:16;;;;;;;20.40;8.00;;;;;;;21.29;89.95;100707.68;4819834;60;1140923;-75
2021/07/17 01:46:22;;;;;;;18.62;8.13;;;;;;;21.34;89.99;100707.97;4820036;60;1141433;-78
2021/07/17 01:51:28;;;;;;;18.23;7.97;;;;;;;21.34;89.71;100713.86;4821251;58;1141017;-75
2021/07/17 01:56:34;;;;;;;14.00;8.05;;;;;;;21.37;89.98;100712.99;4815290;60;1141010;-78
2021/07/17 02:01:40;;;;;;;18.67;7.55;;;;;;;21.49;90.17;100697.73;4790454;60;1140857;-76
2021/07/17 02:06:45;;;;;;;13.62;7.87;;;;;;;21.58;90.24;100689.87;4791610;60;1141056;-75
2021/07/17 02:11:51;;;;;;;22.05;8.75;;;;;;;21.67;90.17;100688.27;4794178;59;1141065;-75
2021/07/17 02:16:57;;;;;;;24.37;8.98;;;;;;;21.74;89.97;100695.06;4796085;59;1140889;-75
2021/07/17 02:22:04;;;;;;;15.10;8.30;;;;;;;21.72;89.31;100691.20;4802741;59;1140922;-76
2021/07/17 02:27:09;;;;;;;15.03;7.78;;;;;;;21.65;88.89;100698.37;4805827;59;1140885;-75
2021/07/17 02:32:15;;;;;;;21.12;8.60;;;;;;;21.59;88.82;100691.55;4803866;59;1140995;-76
2021/07/17 02:37:20;;;;;;;23.50;9.00;;;;;;;21.52;88.80;100699.54;4804395;59;1140954;-73
2021/07/17 02:42:26;;;;;;;19.62;8.55;;;;;;;21.53;89.50;100694.48;4804822;58;1140915;-77
2021/07/17 02:47:32;;;;;;;23.75;9.43;;;;;;;21.56;89.51;100695.44;4804817;59;1141174;-76
2021/07/17 02:52:37;;;;;;;25.00;10.28;;;;;;;21.59;89.59;100695.07;4804666;59;1141252;-77
2021/07/17 02:57:44;;;;;;;29.50;11.15;;;;;;;21.60;89.65;100700.78;4806833;59;1143001;-76
2021/07/17 03:02:50;;;;;;;29.98;10.08;;;;;;;21.55;89.49;100701.84;4884820;59;1142926;-75
2021/07/17 03:07:56;;;;;;;24.07;10.68;;;;;;;21.55;89.63;100706.38;4884322;59;1143000;-73
2021/07/17 03:13:01;;;;;;;25.02;10.70;;;;;;;21.56;89.85;100706.20;4836351;59;1143022;-77
2021/07/17 03:18:07;;;;;;;17.87;9.63;;;;;;;21.52;89.61;100700.89;4822647;60;1143000;-74
2021/07/17 03:23:12;;;;;;;20.08;11.90;;;;;;;21.51;89.59;100702.41;4826840;59;1141123;-76
2021/07/17 03:28:18;;;;;;;32.60;13.28;;;;;;;21.49;89.88;100695.88;4851750;59;1142958;-74
2021/07/17 03:33:24;;;;;;;29.18;14.40;;;;;;;21.48;89.88;100702.27;4872372;59;1142964;-75
2021/07/17 03:38:30;;;;;;;28.25;13.32;;;;;;;21.48;89.90;100709.00;4867541;59;1143031;-76
2021/07/17 03:43:36;;;;;;;38.50;15.53;;;;;;;21.46;89.95;100710.20;4846435;59;1142914;-79
2021/07/17 03:48:42;;;;;;;34.48;14.93;;;;;;;21.40;90.10;100712.59;4860346;59;1143108;-75
2021/07/17 03:53:48;;;;;;;23.22;14.50;;;;;;;21.44;90.53;100714.42;4895693;59;1143135;-75
2021/07/17 03:58:53;;;;;;;23.07;14.65;;;;;;;21.35;90.16;100708.81;4871965;59;1143046;-75
2021/07/17 04:03:59;;;;;;;30.40;15.18;;;;;;;21.34;90.46;100713.86;4886313;59;1143029;-77
2021/07/17 04:09:05;;;;;;;22.55;14.60;;;;;;;21.35;90.65;100714.19;4919565;59;1143012;-75
2021/07/17 04:14:11;;;;;;;27.90;14.40;;;;;;;21.40;90.81;100721.17;4770025;59;1143313;-73
2021/07/17 04:19:17;;;;;;;24.10;14.05;;;;;;;21.44;90.97;100723.84;4904951;58;1143056;-75
2021/07/17 04:24:23;;;;;;;29.30;13.83;;;;;;;21.46;90.91;100725.84;4869551;59;1143122;-78
2021/07/17 04:29:28;;;;;;;25.88;15.65;;;;;;;21.50;91.10;100722.27;4865548;59;1143033;-78
2021/07/17 04:34:34;;;;;;;38.35;15.20;;;;;;;21.56;91.20;100726.39;4824992;60;1143176;-76
2021/07/17 04:39:40;;;;;;;40.83;16.62;;;;;;;21.60;91.16;100730.39;4835987;59;1142924;-74
2021/07/17 04:44:45;;;;;;;33.08;13.53;;;;;;;21.62;91.19;100728.34;4875603;59;1143267;-75
2021/07/17 04:49:51;;;;;;;42.55;16.70;;;;;;;21.70;91.24;100738.17;4856598;59;1143212;-78
2021/07/17 04:54:56;;;;;;;33.18;15.90;;;;;;;21.72;91.32;100741.01;4813882;60;1142978;-77
2021/07/17 05:00:03;;;;;;;36.95;16.00;;;;;;;21.74;91.17;100739.48;4814647;59;1143392;-76
2021/07/17 05:05:09;;;;;;;37.35;18.00;;;;;;;21.79;91.43;100741.11;4824556;60;1142903;-76
2021/07/17 05:10:18;;;;;;;41.88;17.82;;;;;;;21.83;91.37;100739.73;4819299;59;1143010;-78
2021/07/17 05:15:24;;;;;;;36.28;18.25;;;;;;;21.78;90.87;100741.30;4820016;58;1143168;-76
2021/07/17 05:20:30;;;;;;;40.90;20.72;;;;;;;21.76;91.06;100744.17;4820200;59;1143171;-76
2021/07/17 05:25:35;;;;;;;41.83;19.65;;;;;;;21.73;91.09;100741.34;4821210;60;1143132;-78
2021/07/17 05:30:41;;;;;;;44.93;20.55;;;;;;;21.70;91.29;100746.25;4821886;60;1143196;-76
2021/07/17 05:35:46;;;;;;;46.68;24.07;;;;;;;21.70;91.50;100744.39;4821886;60;1143043;-76
2021/07/17 05:40:52;;;;;;;45.90;24.45;;;;;;;21.75;91.87;100740.64;4821858;59;1143026;-78
2021/07/17 05:45:58;;;;;;;44.30;24.77;;;;;;;21.78;91.82;100740.78;4821812;60;1143035;-75
2021/07/17 05:51:03;;;;;;;47.08;26.42;;;;;;;21.71;91.62;100747.41;4821944;60;1143093;-76
2021/07/17 05:56:09;;;;;;;53.30;27.42;;;;;;;21.71;91.98;100747.41;4821698;59;1143013;-77
2021/07/17 06:01:15;;;;;;;50.48;26.97;;;;;;;21.71;92.20;100753.31;4821821;59;1143160;-75
2021/07/17 06:06:21;;;;;;;53.23;31.50;;;;;;;21.74;92.47;100756.98;4821814;59;1143205;-76
2021/07/17 06:11:27;;;;;;;50.63;28.32;;;;;;;21.81;92.86;100749.84;4856902;59;1143155;-76
2021/07/17 06:16:33;;;;;;;48.05;29.48;;;;;;;21.90;92.99;100761.34;4880084;59;1143259;-75
2021/07/17 06:21:38;;;;;;;49.18;30.32;;;;;;;21.96;92.98;100772.22;4893510;59;1143192;-75
2021/07/17 06:26:44;;;;;;;52.35;29.57;;;;;;;22.05;93.27;100773.81;4893416;59;1143283;-79
2021/07/17 06:31:49;;;;;;;48.58;29.57;;;;;;;22.16;93.42;100778.38;4892218;59;1143116;-74
2021/07/17 06:36:55;;;;;;;49.67;29.07;;;;;;;22.25;93.41;100773.23;4892753;59;1143058;-77
2021/07/17 06:42:01;;;;;;;41.80;26.90;;;;;;;22.32;93.31;100768.74;4892223;59;1143027;-77
2021/07/17 06:47:07;;;;;;;43.40;30.20;;;;;;;22.42;93.74;100778.22;4892176;59;1143003;-78
2021/07/17 06:52:13;;;;;;;43.50;27.20;;;;;;;22.56;93.95;100779.20;4892599;59;1143206;-74
2021/07/17 06:57:19;;;;;;;34.88;25.20;;;;;;;22.71;94.00;100789.94;4893159;59;1143109;-77
2021/07/17 07:02:25;;;;;;;39.75;27.10;;;;;;;22.82;93.86;100786.75;4895653;59;1143092;-76
2021/07/17 07:07:32;;;;;;;33.25;23.20;;;;;;;22.90;93.39;100783.95;4871535;59;1142987;-74
2021/07/17 07:12:40;;;;;;;42.10;24.40;;;;;;;22.96;93.04;100791.25;4838984;59;1142904;-77
2021/07/17 07:17:46;;;;;;;30.90;21.10;;;;;;;22.97;92.32;100783.99;4789599;59;1143236;-79
2021/07/17 07:22:51;;;;;;;39.03;20.85;;;;;;;23.01;92.43;100790.16;4889505;59;1142915;-77
2021/07/17 07:27:58;;;;;;;34.70;20.45;;;;;;;23.06;92.33;100792.30;4761887;60;1142994;-79
2021/07/17 07:33:05;;;;;;;34.35;21.23;;;;;;;23.08;92.49;100788.86;4738816;61;1143371;-79
2021/07/17 07:38:10;;;;;;;30.40;19.40;;;;;;;23.09;92.39;100784.62;4823910;59;1143015;-76
2021/07/17 07:43:17;;;;;;;28.62;18.45;;;;;;;23.16;92.55;100791.44;4738754;61;1142925;-82
2021/07/17 07:48:23;;;;;;;34.50;20.52;;;;;;;23.23;92.53;100798.22;4760662;59;1142922;-80
2021/07/17 07:53:29;;;;;;;27.02;14.58;;;;;;;23.27;92.63;100799.52;4824494;60;1142971;-77
2021/07/17 07:58:34;;;;;;;24.65;13.30;;;;;;;23.44;93.47;100799.04;4913343;59;1142945;-78
2021/07/17 08:03:40;;;;;;;22.80;11.70;;;;;;;23.66;92.96;100803.08;4824902;60;1142971;-80
2021/07/17 08:08:46;;;;;;;14.93;10.35;;;;;;;23.87;93.60;100808.91;4904382;59;1142942;-76
2021/07/17 08:13:51;;;;;;;15.23;9.90;;;;;;;24.17;93.08;100814.38;4828572;59;1143314;-77
2021/07/17 08:18:57;;;;;;;22.35;9.85;;;;;;;24.30;91.52;100819.05;4825301;59;1141314;-79
2021/07/17 08:24:06;;;;;;;15.23;8.35;;;;;;;24.34;90.96;100823.85;4818482;59;1140967;-76
2021/07/17 08:29:11;;;;;;;18.10;9.33;;;;;;;24.33;90.20;100820.00;4813775;59;1141098;-82
2021/07/17 08:34:16;;;;;;;15.45;7.60;;;;;;;24.31;89.96;100828.82;4813912;59;1140877;-76
2021/07/17 08:39:22;;;;;;;13.00;7.90;;;;;;;24.28;89.46;100823.84;4813639;59;1140945;-78
2021/07/17 08:44:29;;;;;;;15.58;7.72;;;;;;;24.88;91.13;100815.72;4814743;59;1140886;-78
2021/07/17 08:49:37;;;;;;;25.06;8.66;;;;;;;24.88;91.13;100815.72;4813623;60;1140871;-78
2021/07/17 08:54:43;;;;;;;18.50;9.13;;;;;;;25.27;90.57;100818.18;4813119;59;1140954;-76
2021/07/17 08:59:50;;;;;;;14.50;7.12;;;;;;;25.63;88.80;100822.38;4814283;60;1141045;-80
2021/07/17 09:04:56;;;;;;;11.48;8.60;;;;;;;25.83;87.90;100815.03;4813263;60;1141043;-78
2021/07/17 09:10:03;;;;;;;15.45;8.15;;;;;;;25.98;87.42;100814.27;4815913;60;1141172;-77
2021/07/17 09:15:14;;;;;;;13.65;8.28;;;;;;;26.03;85.85;100809.58;4813571;59;1141163;-77
2021/07/17 09:20:19;;;;;;;19.82;8.00;;;;;;;26.00;85.15;100808.12;4840473;59;1140987;-78
2021/07/17 09:25:25;;;;;;;27.22;9.25;;;;;;;26.05;85.38;100811.03;4881992;59;1140946;-74
2021/07/17 09:30:34;;;;;;;14.73;8.13;;;;;;;26.04;84.08;100814.78;4706145;61;1141011;-77
2021/07/17 09:35:42;;;;;;;14.78;8.43;;;;;;;26.04;84.58;100808.53;4855585;59;1140936;-75
2021/07/17 09:40:55;;;;;;;18.83;12.20;;;;;;;26.09;84.64;100807.38;4738833;61;1141025;-80
2021/07/17 09:46:03;;;;;;;17.12;8.20;;;;;;;26.27;84.69;100790.73;4822968;60;1142932;-79
2021/07/17 09:51:10;;;;;;;20.92;8.20;;;;;;;26.63;83.65;100791.51;4666493;62;1140931;-80
2021/07/17 09:56:24;;;;;;;14.58;7.70;;;;;;;26.86;81.54;100788.77;4823512;60;1140822;-73
2021/07/17 10:01:36;;;;;;;17.12;7.60;;;;;;;27.03;79.73;100789.94;4823717;60;1140943;-78
2021/07/17 10:06:58;;;;;;;15.30;8.55;;;;;;;27.26;79.51;100783.38;4738971;61;1140980;-78
2021/07/17 10:12:05;;;;;;;18.48;9.33;;;;;;;27.54;80.23;100778.83;4735137;59;1141101;-77
2021/07/17 10:17:17;;;;;;;20.70;10.35;;;;;;;27.74;78.34;100776.48;4810663;60;1140894;-76
2021/07/17 10:22:23;;;;;;;22.60;10.15;;;;;;;27.57;77.04;100783.02;4811040;60;1143098;-78
2021/07/17 10:27:29;;;;;;;18.12;10.78;;;;;;;27.33;77.26;100777.90;4810331;60;1143236;-73
2021/07/17 10:32:35;;;;;;;15.48;10.48;;;;;;;27.11;77.05;100776.61;4808995;60;1143061;-82
2021/07/17 10:37:44;;;;;;;16.48;10.05;;;;;;;26.94;77.98;100771.72;4819611;60;1143145;-76
2021/07/17 10:42:57;;;;;;;15.05;10.58;;;;;;;26.90;79.23;100764.19;4811488;60;1143056;-75
2021/07/17 10:48:03;;;;;;;15.90;10.38;;;;;;;26.99;79.69;100762.92;4815705;60;1142983;-81
2021/07/17 10:53:12;;;;;;;15.25;9.33;;;;;;;27.24;79.30;100760.20;4820931;60;1143071;-75
2021/07/17 10:58:28;;;;;;;14.35;9.90;;;;;;;27.52;78.89;100761.08;4816895;60;1140926;-76
2021/07/17 11:03:34;;;;;;;11.63;9.30;;;;;;;27.57;77.21;100748.53;4815785;60;1141184;-78
2021/07/17 11:08:40;;;;;;;10.98;8.75;;;;;;;27.52;76.93;100746.97;4821079;60;1140961;-81
2021/07/17 11:13:46;;;;;;;15.40;9.13;;;;;;;27.56;76.29;100737.36;4852364;59;1141300;-81
2021/07/17 11:18:52;;;;;;;20.55;10.63;;;;;;;27.64;76.60;100729.45;4893748;59;1141272;-82
2021/07/17 11:24:02;;;;;;;13.58;9.05;;;;;;;27.85;76.24;100725.43;4893699;59;1143076;-82
2021/07/17 11:29:14;;;;;;;23.95;9.73;;;;;;;28.05;74.83;100730.64;4885971;59;1140874;-79
2021/07/17 11:34:27;;;;;;;18.42;12.23;;;;;;;28.00;74.41;100721.27;4893789;59;1140815;-85
2021/07/17 11:39:37;;;;;;;10.95;8.53;;;;;;;27.97;73.50;100719.00;4893618;59;1143380;-86
2021/07/17 11:44:47;;;;;;;10.47;7.67;;;;;;;27.90;73.63;100724.23;4893952;59;1140851;-81
2021/07/17 11:49:56;;;;;;;13.38;8.70;;;;;;;27.75;73.17;100727.86;4893832;59;1140787;-79
2021/07/17 11:55:11;;;;;;;10.60;7.72;;;;;;;27.32;72.51;100712.41;4893808;59;1140796;-82
2021/07/17 12:00:22;;;;;;;12.40;8.38;;;;;;;26.96;74.11;100719.39;4893742;59;1140779;-78
2021/07/17 12:05:28;;;;;;;13.32;9.05;;;;;;;27.02;76.02;100708.71;4893661;59;1140957;-83
2021/07/17 12:10:34;;;;;;;11.33;8.83;;;;;;;27.33;77.81;100695.58;4865711;58;1141196;-81
2021/07/17 12:15:41;;;;;;;12.37;9.40;;;;;;;27.78;77.39;100718.73;4824205;59;1141026;-75
2021/07/17 12:20:54;;;;;;;27.00;10.40;;;;;;;27.97;77.75;100716.28;4820282;60;1141117;-77
2021/07/17 12:26:04;;;;;;;15.40;9.98;;;;;;;27.94;77.65;100711.84;4820484;59;1142918;-79
2021/07/17 12:31:11;;;;;;;19.12;9.05;;;;;;;27.77;77.01;100695.33;4821460;60;1140980;-78
2021/07/17 12:36:26;;;;;;;18.92;9.60;;;;;;;27.62;78.17;100696.23;4829320;59;1140994;-76
2021/07/17 12:41:32;;;;;;;15.63;8.85;;;;;;;27.27;77.04;100693.22;4830986;60;1140977;-78
2021/07/17 12:46:43;;;;;;;18.60;10.86;;;;;;;27.07;77.78;100675.75;4830968;59;1141098;-73
2021/07/17 12:51:51;;;;;;;12.37;10.58;;;;;;;26.77;78.27;100657.92;4830857;60;1143253;-75
2021/07/17 12:57:03;;;;;;;25.12;12.65;;;;;;;26.66;79.64;100649.16;4830664;60;1143165;-77
2021/07/17 13:02:15;;;;;;;23.10;12.82;;;;;;;26.70;80.22;100651.73;4830855;59;1143043;-79
2021/07/17 13:07:35;;;;;;;27.22;13.00;;;;;;;26.72;80.54;100657.78;4830684;59;1142939;-78
2021/07/17 13:12:41;;;;;;;27.48;13.55;;;;;;;26.68;80.68;100654.36;4875250;59;1142947;-79
2021/07/17 13:17:47;;;;;;;27.57;13.50;;;;;;;26.66;81.38;100649.68;4899270;59;1143011;-76
2021/07/17 13:22:55;;;;;;;19.57;12.25;;;;;;;26.76;83.84;100638.62;4904695;59;1143079;-75
2021/07/17 13:28:09;;;;;;;32.63;16.93;;;;;;;27.06;83.97;100642.86;4907573;59;1143158;-74
2021/07/17 13:33:15;;;;;;;20.82;13.75;;;;;;;27.08;82.76;100648.08;4879864;59;1143126;-73
2021/07/17 13:38:22;;;;;;;26.02;15.13;;;;;;;27.01;83.02;100648.69;4855861;59;1142896;-78
2021/07/17 13:43:29;;;;;;;19.87;12.00;;;;;;;27.02;83.83;100628.10;4856375;59;1143149;-77
2021/07/17 13:48:37;;;;;;;15.18;9.95;;;;;;;27.01;83.49;100626.44;4835452;59;1142981;-75
2021/07/17 13:53:42;;;;;;;12.45;7.92;;;;;;;27.08;84.00;100637.21;4816957;59;1140930;-80
2021/07/17 13:58:51;;;;;;;8.28;7.47;;;;;;;27.23;83.62;100664.31;4817120;59;1140902;-77
2021/07/17 14:03:57;;;;;;;12.58;8.28;;;;;;;27.16;81.19;100655.42;4625806;61;1139085;-75
2021/07/17 14:09:03;;;;;;;9.63;7.85;;;;;;;27.22;81.80;100646.36;4817006;59;1140870;-76
2021/07/17 14:14:12;;;;;;;4.65;4.28;;;;;;;27.20;80.08;100640.31;4824035;60;1139102;-77
2021/07/17 14:19:16;;;;;;;9.15;5.55;;;;;;;27.00;78.16;100638.88;4826017;59;1138870;-73
2021/07/17 14:24:22;;;;;;;7.35;5.25;;;;;;;26.83;78.53;100635.34;4822308;59;1139066;-75
2021/07/17 14:29:29;;;;;;;6.40;4.65;;;;;;;26.68;78.57;100640.80;4849740;58;1138827;-77
2021/07/17 14:34:36;;;;;;;5.75;5.15;;;;;;;26.53;78.47;100646.55;4805110;59;1139406;-76
2021/07/17 14:39:42;;;;;;;13.03;7.30;;;;;;;26.39;78.85;100656.66;4781818;59;1139510;-76
2021/07/17 14:44:48;;;;;;;7.17;5.15;;;;;;;26.30;78.39;100665.27;4816924;59;1141115;-75
2021/07/17 14:49:55;;;;;;;12.90;6.53;;;;;;;26.21;78.15;100680.41;4852110;59;1139324;-78
2021/07/17 14:55:02;;;;;;;9.38;4.83;;;;;;;26.06;77.92;100683.11;4665190;59;1140995;-74
2021/07/17 15:00:13;;;;;;;10.90;5.80;;;;;;;25.28;77.15;100666.05;4691325;60;1138980;-78
2021/07/17 15:05:19;;;;;;;7.90;5.75;;;;;;;25.28;77.15;100666.05;4696304;61;1140981;-76
2021/07/17 15:10:25;;;;;;;13.72;5.67;;;;;;;25.20;78.15;100669.83;4677680;61;1138889;-77
2021/07/17 15:15:31;;;;;;;14.55;4.87;;;;;;;24.88;77.63;100660.66;4668005;61;1141191;-79
2021/07/17 15:20:37;;;;;;;10.48;5.08;;;;;;;24.68;78.34;100665.23;4685031;60;1217314;-81
2021/07/17 15:25:44;;;;;;;7.80;4.85;;;;;;;24.68;78.71;100678.75;4710470;61;1141483;-87
2021/07/17 15:30:50;;;;;;;6.83;4.83;;;;;;;24.74;79.05;100667.95;4716295;59;1139076;-80
2021/07/17 15:35:56;;;;;;;4.87;4.47;;;;;;;24.79;78.75;100665.95;4779522;59;1139079;-84
2021/07/17 15:41:02;;;;;;;6.10;4.53;;;;;;;24.77;78.14;100675.62;4715112;61;1139397;-81
2021/07/17 15:46:08;;;;;;;4.50;4.07;;;;;;;24.63;77.97;100681.23;4818134;59;1139289;-82
2021/07/17 15:51:13;;;;;;;6.10;3.37;;;;;;;24.41;77.52;100681.44;4740518;60;1138875;-79
2021/07/17 15:56:19;;;;;;;7.17;4.37;;;;;;;24.28;77.75;100677.87;4819689;59;1139176;-79
2021/07/17 16:01:25;;;;;;;6.75;5.40;;;;;;;24.10;78.49;100669.79;4707032;60;1139036;-79
2021/07/17 16:06:30;;;;;;;5.70;5.03;;;;;;;24.05;78.61;100661.45;4733456;60;1139054;-84
2021/07/17 16:11:36;;;;;;;6.80;4.37;;;;;;;24.01;78.48;100656.64;4737967;60;1138841;-83
2021/07/17 16:16:43;;;;;;;7.37;3.72;;;;;;;23.87;78.63;100651.72;4720276;60;1139012;-83
2021/07/17 16:21:49;;;;;;;6.28;4.50;;;;;;;23.73;78.95;100660.28;4648563;60;1139072;-83
2021/07/17 16:26:55;;;;;;;5.80;4.12;;;;;;;23.57;79.37;100654.39;4673699;60;1139376;-83
2021/07/17 16:32:02;;;;;;;9.25;4.30;;;;;;;23.40;79.97;100653.34;4715568;60;1139129;-78
2021/07/17 16:37:07;;;;;;;9.70;4.22;;;;;;;23.18;80.35;100646.37;4727527;60;1139478;-79
2021/07/17 16:42:13;;;;;;;6.97;4.28;;;;;;;23.15;80.70;100661.59;4593740;62;1139143;-84
2021/07/17 16:47:18;;;;;;;6.70;3.75;;;;;;;23.20;80.98;100663.20;4666596;61;1138940;-78
2021/07/17 16:52:24;;;;;;;11.35;5.17;;;;;;;23.32;80.93;100678.31;4773284;58;1138866;-78
2021/07/17 16:57:31;;;;;;;13.70;7.60;;;;;;;23.43;81.31;100673.19;4852376;58;1141127;-83
2021/07/17 17:02:37;;;;;;;7.47;6.22;;;;;;;23.65;81.70;100680.73;4859956;58;1140921;-82
2021/07/17 17:07:42;;;;;;;10.72;5.65;;;;;;;23.87;81.58;100683.30;4862484;58;1139324;-78
2021/07/17 17:12:48;;;;;;;9.10;6.33;;;;;;;24.08;81.14;100681.83;4866021;58;1140885;-83
2021/07/17 17:17:54;;;;;;;11.63;7.95;;;;;;;24.14;80.83;100672.38;4876838;58;1138993;-79
2021/07/17 17:23:00;;;;;;;10.10;6.42;;;;;;;24.11;80.25;100653.05;4846317;58;1142046;-83
2021/07/17 17:28:06;;;;;;;13.25;5.30;;;;;;;24.00;79.88;100661.21;4842325;58;1140921;-85
2021/07/17 17:33:12;;;;;;;10.60;6.20;;;;;;;23.81;80.16;100656.08;4868205;58;1141168;-82
2021/07/17 17:38:18;;;;;;;13.45;7.53;;;;;;;23.68;80.78;100652.49;4888747;58;1140990;-85
2021/07/17 17:43:23;;;;;;;13.40;7.45;;;;;;;23.72;81.51;100653.22;4883730;58;1141033;-85
2021/07/17 17:48:29;;;;;;;12.73;6.72;;;;;;;23.78;81.67;100653.77;4818945;59;1141177;-79
2021/07/17 17:53:35;;;;;;;11.23;6.63;;;;;;;23.85;81.77;100660.02;4883499;58;1140997;-82
2021/07/17 17:58:40;;;;;;;19.02;9.28;;;;;;;23.82;81.48;100660.97;4819790;59;1140947;-79
2021/07/17 18:03:46;;;;;;;11.55;6.53;;;;;;;23.81;81.59;100671.45;4807631;59;1141180;-80
2021/07/17 18:08:51;;;;;;;14.43;6.85;;;;;;;23.80;81.73;100684.13;4653865;61;1140955;-80
2021/07/17 18:13:57;;;;;;;12.70;6.75;;;;;;;23.81;81.84;100691.71;4855735;58;1141126;-79
2021/07/17 18:19:06;;;;;;;11.08;5.75;;;;;;;23.87;82.13;100698.98;4795831;59;1141016;-77
2021/07/17 18:24:12;;;;;;;9.95;6.17;;;;;;;23.90;81.94;100689.14;4788374;60;1140896;-78
2021/07/17 18:29:18;;;;;;;12.13;5.58;;;;;;;23.82;81.85;100694.73;4857386;58;1138866;-78
2021/07/17 18:34:23;;;;;;;11.70;6.17;;;;;;;23.70;82.21;100686.34;4758414;59;1141123;-78
2021/07/17 18:39:30;;;;;;;10.82;6.10;;;;;;;23.74;82.62;100687.61;4879627;58;1140886;-75
2021/07/17 18:44:35;;;;;;;10.00;6.25;;;;;;;23.78;82.71;100693.45;4834343;59;1140951;-77
2021/07/17 18:49:41;;;;;;;8.13;5.75;;;;;;;23.79;82.65;100687.86;4819573;59;1141132;-79
2021/07/17 18:54:47;;;;;;;7.00;6.30;;;;;;;23.74;82.34;100694.36;4818493;59;1138954;-78
2021/07/17 18:59:53;;;;;;;9.45;6.45;;;;;;;23.62;82.45;100695.97;4742810;61;1139267;-80
2021/07/17 19:04:59;;;;;;;10.38;6.42;;;;;;;23.59;82.74;100688.78;4818042;59;1138897;-80
2021/07/17 19:10:07;;;;;;;6.05;5.40;;;;;;;23.56;82.82;100689.17;4812415;59;1140985;-82
2021/07/17 19:15:14;;;;;;;10.55;5.60;;;;;;;23.54;82.82;100687.19;4771382;60;1138992;-80
2021/07/17 19:20:22;;;;;;;10.90;6.25;;;;;;;23.47;82.91;100693.36;4838806;58;1141094;-81
2021/07/17 19:25:29;;;;;;;8.80;6.80;;;;;;;23.41;82.98;100683.86;4834697;58;1141013;-79
2021/07/17 19:30:36;;;;;;;10.08;6.83;;;;;;;23.34;83.11;100683.84;4883208;58;1139003;-80
2021/07/17 19:35:42;;;;;;;11.80;6.70;;;;;;;23.29;83.25;100676.84;4860023;58;1140908;-79
2021/07/17 19:40:49;;;;;;;16.10;7.20;;;;;;;23.26;83.46;100676.40;4854213;59;1141257;-81
2021/07/17 19:45:56;;;;;;;16.87;8.33;;;;;;;23.27;83.67;100686.16;4851072;58;1141108;-81
2021/07/17 19:51:01;;;;;;;14.13;7.50;;;;;;;23.26;83.90;100685.33;4766226;59;1141080;-81
2021/07/17 19:56:07;;;;;;;15.53;8.20;;;;;;;23.24;83.77;100688.73;4825251;59;1140849;-79
2021/07/17 20:01:13;;;;;;;15.18;6.67;;;;;;;23.24;83.91;100686.55;4844980;60;1141013;-78
2021/07/17 20:06:19;;;;;;;25.12;8.85;;;;;;;23.22;84.03;100693.49;4838484;60;1141056;-78
2021/07/17 20:11:25;;;;;;;22.60;8.50;;;;;;;23.12;84.17;100691.67;4820575;60;1140944;-80
2021/07/17 20:16:30;;;;;;;15.05;8.10;;;;;;;23.07;84.55;100692.76;4893274;59;1140995;-82
2021/07/17 20:21:36;;;;;;;15.70;8.48;;;;;;;23.02;84.56;100699.28;4889984;59;1141087;-82
2021/07/17 20:26:42;;;;;;;12.53;7.85;;;;;;;22.94;84.75;100698.89;4882159;58;1140936;-79
2021/07/17 20:31:48;;;;;;;16.70;8.33;;;;;;;22.90;84.91;100698.15;4877976;58;1141093;-79
2021/07/17 20:36:54;;;;;;;21.95;8.90;;;;;;;22.88;85.08;100698.34;4845002;60;1140989;-81
2021/07/17 20:42:00;;;;;;;20.80;8.98;;;;;;;22.88;85.13;100693.45;4844808;59;1140814;-83
2021/07/17 20:47:06;;;;;;;21.90;7.57;;;;;;;22.83;85.04;100698.08;4863968;59;1140867;-83
2021/07/17 20:52:12;;;;;;;10.90;7.00;;;;;;;22.79;85.01;100711.11;4856105;59;1140940;-78
2021/07/17 20:57:18;;;;;;;16.48;7.28;;;;;;;22.77;85.02;100709.11;4816831;60;1141431;-80
2021/07/17 21:02:23;;;;;;;14.18;7.00;;;;;;;22.78;85.06;100725.62;4812451;60;1140919;-82
2021/07/17 21:07:29;;;;;;;14.98;9.40;;;;;;;22.82;84.83;100727.42;4769456;60;1140930;-80
2021/07/17 21:12:35;;;;;;;17.05;8.53;;;;;;;22.84;84.89;100742.06;4820619;60;1140776;-79
2021/07/17 21:17:41;;;;;;;13.43;7.58;;;;;;;22.74;84.74;100739.67;4813599;60;1141060;-82
2021/07/17 21:22:47;;;;;;;25.82;9.15;;;;;;;22.70;84.77;100748.66;4890492;59;1141073;-82
2021/07/17 21:27:54;;;;;;;17.20;8.95;;;;;;;22.73;84.76;100759.57;4813857;60;1140932;-78
2021/07/17 21:33:00;;;;;;;10.18;7.40;;;;;;;22.73;84.76;100763.62;4728525;61;1141028;-83
2021/07/17 21:38:06;;;;;;;10.35;7.40;;;;;;;22.75;84.75;100781.80;4821769;60;1140954;-78
2021/07/17 21:43:12;;;;;;;16.93;7.85;;;;;;;22.75;84.93;100798.81;4813909;60;1141244;-81
2021/07/17 21:48:19;;;;;;;12.28;7.55;;;;;;;22.78;84.63;100797.59;4812431;59;1140952;-79
2021/07/17 21:53:25;;;;;;;10.43;6.87;;;;;;;22.80;84.48;100803.13;4727420;61;1140900;-80
2021/07/17 21:58:30;;;;;;;9.45;7.65;;;;;;;22.81;84.17;100809.36;4801530;60;1141063;-81
2021/07/17 22:03:36;;;;;;;13.32;7.20;;;;;;;22.79;84.20;100806.84;4682270;61;1138850;-78
2021/07/17 22:08:42;;;;;;;14.15;6.58;;;;;;;22.80;84.31;100803.64;4803298;60;1141414;-82
2021/07/17 22:13:48;;;;;;;9.88;6.62;;;;;;;22.81;84.01;100801.27;4724452;61;1140923;-80
2021/07/17 22:18:54;;;;;;;9.53;6.47;;;;;;;22.75;83.68;100802.02;4709424;61;1138965;-80
2021/07/17 22:24:00;;;;;;;10.50;6.65;;;;;;;22.63;83.54;100795.43;4724395;61;1139060;-80
2021/07/17 22:29:06;;;;;;;10.17;6.93;;;;;;;22.64;84.10;100799.80;4727638;61;1140877;-82
2021/07/17 22:34:12;;;;;;;7.83;5.50;;;;;;;22.64;84.08;100787.66;4727241;61;1141021;-80
2021/07/17 22:39:18;;;;;;;11.38;6.65;;;;;;;22.59;83.91;100786.08;4726845;61;1138934;-81
2021/07/17 22:44:24;;;;;;;15.98;7.17;;;;;;;22.44;83.81;100785.61;4727384;61;1140895;-79
2021/07/17 22:49:29;;;;;;;12.70;6.78;;;;;;;22.41;84.13;100787.33;4727723;61;1141009;-81
2021/07/17 22:54:35;;;;;;;10.45;6.75;;;;;;;22.35;84.22;100795.31;4727130;60;1140995;-78